Time;durP1;ratioP1;P1;durP2;ratioP2;P2;SDS_P1;SDS_P2;PMS_P1;PMS_P2;Temp;Humidity;BMP_temperature;BMP_pressure;BME280_temperature;BME280_humidity;BME280_pressure;Samples;Min_cycle;Max_cycle;Signal;HPM_P1;HPM_P2
2022/06/12 00:05:30;;;;;;;8.38;5.97;;;;;;;;;;5111192;27;20422;-70
2022/06/12 00:07:56;;;;;;;10.50;6.15;;;;;;;;;;5110771;28;20483;-71
2022/06/12 00:10:22;;;;;;;7.50;5.55;;;;;;;;;;5111289;28;20035;-70
2022/06/12 00:14:49;;;;;;;8.32;5.60;;;;;;;;;;5111055;27;20459;-71
2022/06/12 00:17:16;;;;;;;8.43;5.88;;;;;;;;;;5111355;28;20024;-71
2022/06/12 00:19:44;;;;;;;9.30;5.50;;;;;;;;;;5111428;28;20069;-71
2022/06/12 00:23:47;;;;;;;8.70;6.03;;;;;;;;;;5111494;27;20422;-71
2022/06/12 00:26:14;;;;;;;8.70;5.82;;;;;;;;;;5111460;28;20024;-71
2022/06/12 00:28:40;;;;;;;8.45;5.60;;;;;;;;;;5110849;28;20069;-71
2022/06/12 00:32:49;;;;;;;10.52;6.20;;;;;;;;;;5111637;27;20433;-71
2022/06/12 00:36:02;;;;;;;7.70;5.57;;;;;;;;;;5111029;27;20422;-70
2022/06/12 00:38:28;;;;;;;7.60;5.18;;;;;;;;;;5111364;28;20023;-70
2022/06/12 00:43:49;;;;;;;9.75;6.70;;;;;;;;;;5110851;27;20400;-71
2022/06/12 00:47:23;;;;;;;8.70;5.43;;;;;;;;;;5111208;27;20426;-70
2022/06/12 00:50:57;;;;;;;8.68;5.43;;;;;;;;;;5110843;27;20430;-70
2022/06/12 00:53:26;;;;;;;8.18;5.57;;;;;;;;;;5111556;28;20024;-70
2022/06/12 00:56:01;;;;;;;7.28;5.38;;;;;;;;;;5111148;28;20028;-70
2022/06/12 00:59:16;;;;;;;8.68;5.60;;;;;;;;;;5111637;27;20393;-71
2022/06/12 01:10:28;;;;;;;7.90;5.35;;;;;;;;;;5111404;27;20424;-70
2022/06/12 01:13:02;;;;;;;8.77;5.85;;;;;;;;;;5111462;28;20020;-70
2022/06/12 01:15:41;;;;;;;8.02;5.50;;;;;;;;;;5111189;28;20016;-71
2022/06/12 01:18:10;;;;;;;8.55;5.20;;;;;;;;;;5110668;28;20053;-71
2022/06/12 01:22:26;;;;;;;11.15;6.45;;;;;;;;;;5111239;27;20584;-71
2022/06/12 01:26:54;;;;;;;8.25;5.53;;;;;;;;;;5111572;27;20405;-71
2022/06/12 01:32:02;;;;;;;7.65;5.30;;;;;;;;;;5111168;27;20458;-71
2022/06/12 01:34:55;;;;;;;9.25;6.15;;;;;;;;;;5111757;27;20393;-71
2022/06/12 01:37:33;;;;;;;9.48;5.70;;;;;;;;;;5111213;28;20103;-70
2022/06/12 01:40:09;;;;;;;8.38;5.72;;;;;;;;;;5126654;28;20043;-70
2022/06/12 01:44:06;;;;;;;8.88;5.78;;;;;;;;;;5152610;27;20115;-70
2022/06/12 01:48:29;;;;;;;10.05;6.38;;;;;;;;;;5173317;27;20367;-70
2022/06/12 01:51:14;;;;;;;8.10;5.43;;;;;;;;;;5152498;27;20019;-71
2022/06/12 01:55:04;;;;;;;10.15;5.82;;;;;;;;;;5111722;27;20396;-70
2022/06/12 02:00:24;;;;;;;8.38;5.20;;;;;;;;;;5110943;27;20450;-70
2022/06/12 02:03:28;;;;;;;8.32;5.55;;;;;;;;;;5111409;27;20384;-70
2022/06/12 02:07:42;;;;;;;9.63;5.63;;;;;;;;;;5152177;27;20123;-71
2022/06/12 02:15:13;;;;;;;7.63;5.28;;;;;;;;;;5110949;28;20062;-71
2022/06/12 02:20:26;;;;;;;7.30;4.95;;;;;;;;;;5111270;27;20396;-71
2022/06/12 02:22:53;;;;;;;7.15;4.60;;;;;;;;;;5111246;28;20103;-71
2022/06/12 02:25:26;;;;;;;8.45;5.18;;;;;;;;;;5111142;28;20074;-71
2022/06/12 02:28:04;;;;;;;8.38;5.35;;;;;;;;;;5111151;28;20030;-71
2022/06/12 02:30:33;;;;;;;7.65;5.15;;;;;;;;;;5111076;28;20024;-71
2022/06/12 02:32:59;;;;;;;8.60;5.32;;;;;;;;;;5111077;28;20030;-70
2022/06/12 02:35:30;;;;;;;7.20;4.80;;;;;;;;;;5110586;28;20480;-71
2022/06/12 02:38:37;;;;;;;8.95;5.25;;;;;;;;;;5111635;27;20451;-70
2022/06/12 02:41:06;;;;;;;8.80;5.13;;;;;;;;;;5111726;28;20024;-71
2022/06/12 02:43:33;;;;;;;7.75;4.80;;;;;;;;;;5110721;28;20043;-70
2022/06/12 02:49:31;;;;;;;7.05;5.03;;;;;;;;;;5111182;27;20457;-71
2022/06/12 02:52:03;;;;;;;7.20;3.95;;;;;;;;;;5111512;28;20043;-71
2022/06/12 02:54:38;;;;;;;7.15;4.93;;;;;;;;;;5109874;28;20035;-70
2022/06/12 02:57:04;;;;;;;8.40;4.85;;;;;;;;;;5110859;28;20085;-70
2022/06/12 02:59:30;;;;;;;7.78;5.00;;;;;;;;;;5111115;28;20107;-70
2022/06/12 03:02:18;;;;;;;8.02;4.68;;;;;;;;;;5111833;27;20445;-70
2022/06/12 03:04:54;;;;;;;9.50;5.00;;;;;;;;;;5111556;28;20039;-70
2022/06/12 03:07:20;;;;;;;10.35;5.03;;;;;;;;;;5111073;28;20051;-71
2022/06/12 03:09:46;;;;;;;8.38;4.85;;;;;;;;;;5110532;28;20517;-70
2022/06/12 03:13:43;;;;;;;7.68;4.13;;;;;;;;;;5111705;27;20385;-71
2022/06/12 03:16:16;;;;;;;8.50;4.88;;;;;;;;;;5111208;28;20034;-71
2022/06/12 03:19:45;;;;;;;8.85;4.63;;;;;;;;;;5111960;27;20458;-71
2022/06/12 03:22:20;;;;;;;7.90;5.43;;;;;;;;;;5111429;28;20102;-71
2022/06/12 03:25:51;;;;;;;7.75;5.05;;;;;;;;;;5111736;27;20423;-71
2022/06/12 03:28:33;;;;;;;6.82;5.07;;;;;;;;;;5111431;28;20093;-71
2022/06/12 03:32:42;;;;;;;6.95;5.00;;;;;;;;;;5110966;27;20908;-71
2022/06/12 03:35:14;;;;;;;7.78;5.50;;;;;;;;;;5111231;28;20028;-71
2022/06/12 03:41:12;;;;;;;7.00;5.40;;;;;;;;;;5111770;27;20389;-70
2022/06/12 03:43:44;;;;;;;7.75;5.25;;;;;;;;;;5111511;28;20024;-71
2022/06/12 03:46:13;;;;;;;7.55;4.85;;;;;;;;;;5110973;28;20028;-70
2022/06/12 03:48:39;;;;;;;6.82;4.63;;;;;;;;;;5111182;28;20078;-71
2022/06/12 03:52:37;;;;;;;7.05;4.78;;;;;;;;;;5111255;27;20443;-71
2022/06/12 03:55:06;;;;;;;7.28;5.13;;;;;;;;;;5111791;28;20496;-70
2022/06/12 03:59:46;;;;;;;7.68;5.22;;;;;;;;;;5111249;27;20384;-70
2022/06/12 04:02:58;;;;;;;7.20;5.20;;;;;;;;;;5111689;27;20424;-70
2022/06/12 04:07:04;;;;;;;8.13;5.68;;;;;;;;;;5111048;27;20396;-70
2022/06/12 04:09:32;;;;;;;10.15;4.93;;;;;;;;;;5111212;28;20352;-70
2022/06/12 04:12:00;;;;;;;7.50;5.15;;;;;;;;;;5111196;28;20375;-70
2022/06/12 04:17:05;;;;;;;8.80;5.50;;;;;;;;;;5173790;27;20117;-70
2022/06/12 04:20:54;;;;;;;8.02;5.25;;;;;;;;;;5111362;27;20418;-71
2022/06/12 04:23:58;;;;;;;8.77;5.35;;;;;;;;;;5111224;28;20557;-70
2022/06/12 04:26:30;;;;;;;7.63;5.22;;;;;;;;;;5088748;28;20524;-71
2022/06/12 04:30:36;;;;;;;7.95;5.13;;;;;;;;;;5111721;27;20422;-70
2022/06/12 04:33:23;;;;;;;8.48;5.60;;;;;;;;;;5111197;28;20027;-71
2022/06/12 04:35:57;;;;;;;9.18;6.45;;;;;;;;;;5100084;28;20070;-70
2022/06/12 04:41:35;;;;;;;8.10;5.82;;;;;;;;;;5110899;27;20397;-70
2022/06/12 04:44:02;;;;;;;8.90;5.45;;;;;;;;;;5111379;28;20035;-70
2022/06/12 04:48:30;;;;;;;7.70;5.20;;;;;;;;;;5111049;27;20445;-70
2022/06/12 04:50:57;;;;;;;8.45;5.43;;;;;;;;;;5111155;28;20031;-70
2022/06/12 04:53:23;;;;;;;8.65;5.30;;;;;;;;;;5111060;28;20484;-70
2022/06/12 04:55:49;;;;;;;11.15;5.90;;;;;;;;;;5110694;28;20490;-70
2022/06/12 05:00:25;;;;;;;7.35;5.40;;;;;;;;;;5173363;27;20118;-70
2022/06/12 05:06:28;;;;;;;8.82;5.70;;;;;;;;;;5111460;27;20397;-70
2022/06/12 05:09:39;;;;;;;6.68;4.80;;;;;;;;;;5111006;27;20393;-70
2022/06/12 05:12:06;;;;;;;7.40;5.18;;;;;;;;;;5111452;28;20426;-71
2022/06/12 05:14:32;;;;;;;7.30;4.90;;;;;;;;;;5111109;28;20476;-70
2022/06/12 05:17:58;;;;;;;8.32;5.30;;;;;;;;;;5110880;27;20400;-70
2022/06/12 05:20:26;;;;;;;6.68;4.22;;;;;;;;;;5111411;28;20019;-71
2022/06/12 05:29:31;;;;;;;6.85;4.57;;;;;;;;;;5111822;27;20465;-71
2022/06/12 05:31:58;;;;;;;7.70;4.88;;;;;;;;;;5110862;28;20115;-71
2022/06/12 05:34:25;;;;;;;7.50;4.72;;;;;;;;;;5111477;28;20043;-70
2022/06/12 05:36:51;;;;;;;6.88;4.72;;;;;;;;;;5111201;28;20020;-70
2022/06/12 05:41:17;;;;;;;9.68;4.95;;;;;;;;;;5111921;27;20389;-71
2022/06/12 05:46:45;;;;;;;8.45;4.60;;;;;;;;;;5111946;27;20393;-71
2022/06/12 05:51:28;;;;;;;6.15;4.05;;;;;;;;;;5111061;27;20392;-71
2022/06/12 05:53:54;;;;;;;9.48;4.75;;;;;;;;;;5111531;28;20479;-70
2022/06/12 05:56:21;;;;;;;7.45;3.97;;;;;;;;;;5111120;28;20087;-70
2022/06/12 06:00:21;;;;;;;6.38;4.10;;;;;;;;;;5111449;27;20393;-71
2022/06/12 06:02:48;;;;;;;7.50;4.32;;;;;;;;;;5111234;28;20069;-71
2022/06/12 06:05:14;;;;;;;6.65;4.20;;;;;;;;;;5111054;28;20020;-71
2022/06/12 06:09:05;;;;;;;6.05;4.28;;;;;;;;;;5111680;27;20792;-72
2022/06/12 06:13:07;;;;;;;10.30;4.57;;;;;;;;;;5110894;27;20921;-71
2022/06/12 06:15:33;;;;;;;11.40;4.68;;;;;;;;;;5111176;28;20024;-71
2022/06/12 06:18:31;;;;;;;7.50;4.00;;;;;;;;;;5111458;27;20393;-71
2022/06/12 06:20:57;;;;;;;7.70;4.30;;;;;;;;;;5110900;28;20062;-71
2022/06/12 06:23:23;;;;;;;9.88;4.65;;;;;;;;;;5111174;28;20027;-71
2022/06/12 06:26:47;;;;;;;8.07;3.95;;;;;;;;;;5111449;27;20462;-71
2022/06/12 06:29:13;;;;;;;7.22;4.30;;;;;;;;;;5111128;28;20038;-71
2022/06/12 06:31:53;;;;;;;9.10;4.80;;;;;;;;;;5111661;27;20384;-72
2022/06/12 06:34:19;;;;;;;7.13;4.00;;;;;;;;;;5110864;28;20023;-71
2022/06/12 06:36:45;;;;;;;7.88;4.32;;;;;;;;;;5111277;28;20051;-71
2022/06/12 06:39:11;;;;;;;7.25;4.53;;;;;;;;;;5126880;28;20028;-71
2022/06/12 06:41:38;;;;;;;7.55;4.53;;;;;;;;;;5110737;28;20034;-71
2022/06/12 06:46:49;;;;;;;7.40;4.68;;;;;;;;;;5111085;28;20051;-71
2022/06/12 06:50:05;;;;;;;9.10;4.55;;;;;;;;;;5112118;27;20749;-71
2022/06/12 06:53:58;;;;;;;8.52;4.43;;;;;;;;;;5111282;27;20438;-71
2022/06/12 06:56:24;;;;;;;5.97;4.18;;;;;;;;;;5110849;28;20030;-71
2022/06/12 06:58:51;;;;;;;7.28;4.70;;;;;;;;;;5111219;28;20026;-71
2022/06/12 07:01:17;;;;;;;8.15;4.68;;;;;;;;;;5111136;28;20387;-71
2022/06/12 07:03:44;;;;;;;7.57;4.38;;;;;;;;;;5110638;28;20093;-71
2022/06/12 07:06:13;;;;;;;7.03;4.90;;;;;;;;;;5110969;28;20074;-71
2022/06/12 07:08:40;;;;;;;6.25;4.22;;;;;;;;;;5110470;28;20028;-71
2022/06/12 07:11:06;;;;;;;6.63;4.45;;;;;;;;;;5111167;28;20016;-71
2022/06/12 07:14:40;;;;;;;6.63;4.28;;;;;;;;;;5111284;27;20393;-71
2022/06/12 07:18:02;;;;;;;9.70;6.00;;;;;;;;;;5111464;27;20422;-71
2022/06/12 07:22:21;;;;;;;6.30;4.05;;;;;;;;;;5111314;27;20404;-71
2022/06/12 07:24:47;;;;;;;7.20;3.92;;;;;;;;;;5110855;28;20028;-72
2022/06/12 07:27:14;;;;;;;5.72;3.97;;;;;;;;;;5111482;28;20030;-72
2022/06/12 07:30:59;;;;;;;11.07;9.60;;;;;;;;;;5111013;27;20397;-71
2022/06/12 07:34:12;;;;;;;7.47;4.60;;;;;;;;;;5111222;27;20462;-71
2022/06/12 07:36:39;;;;;;;6.95;4.53;;;;;;;;;;5110779;28;20039;-70
2022/06/12 07:39:07;;;;;;;7.85;4.32;;;;;;;;;;5111344;28;20054;-70
2022/06/12 07:41:33;;;;;;;8.82;4.88;;;;;;;;;;5111129;28;20082;-70
2022/06/12 07:43:59;;;;;;;8.02;4.78;;;;;;;;;;5109456;28;20077;-71
2022/06/12 07:46:27;;;;;;;6.88;4.72;;;;;;;;;;5111010;28;20023;-72
2022/06/12 07:48:53;;;;;;;7.72;4.70;;;;;;;;;;5111026;28;20460;-71
2022/06/12 07:51:20;;;;;;;7.35;4.68;;;;;;;;;;5109298;28;20035;-71
2022/06/12 07:53:47;;;;;;;7.35;4.70;;;;;;;;;;5110785;28;20372;-71
2022/06/12 07:58:23;;;;;;;9.43;4.65;;;;;;;;;;5110966;27;20389;-70
2022/06/12 08:00:50;;;;;;;7.93;4.38;;;;;;;;;;5111352;28;20059;-71
2022/06/12 08:03:16;;;;;;;6.13;4.10;;;;;;;;;;5111157;28;20034;-71
2022/06/12 08:05:42;;;;;;;7.95;4.30;;;;;;;;;;5110753;28;20386;-71
2022/06/12 08:10:11;;;;;;;7.57;4.50;;;;;;;;;;5111365;27;20453;-71
2022/06/12 08:12:38;;;;;;;6.85;4.60;;;;;;;;;;5110743;28;20031;-72
2022/06/12 08:15:09;;;;;;;7.25;4.25;;;;;;;;;;5111159;28;20028;-71
2022/06/12 08:17:36;;;;;;;10.13;5.22;;;;;;;;;;5111632;28;20337;-71
2022/06/12 08:22:47;;;;;;;7.07;4.10;;;;;;;;;;5111290;28;20030;-71
2022/06/12 08:25:13;;;;;;;6.53;3.92;;;;;;;;;;5109651;28;20434;-72
2022/06/12 08:27:39;;;;;;;6.35;3.60;;;;;;;;;;5110550;28;20020;-72
2022/06/12 08:33:38;;;;;;;8.25;5.13;;;;;;;;;;5111050;27;20392;-70
2022/06/12 08:36:05;;;;;;;7.55;4.88;;;;;;;;;;5111251;28;20051;-70
2022/06/12 08:38:31;;;;;;;6.40;4.35;;;;;;;;;;5111215;28;20048;-70
2022/06/12 08:44:47;;;;;;;7.95;5.20;;;;;;;;;;5112016;27;20397;-71
2022/06/12 08:47:23;;;;;;;8.65;5.20;;;;;;;;;;5111227;28;20035;-71
2022/06/12 08:50:06;;;;;;;7.97;5.18;;;;;;;;;;5112122;27;20438;-72
2022/06/12 08:52:38;;;;;;;15.15;5.03;;;;;;;;;;5111072;28;20035;-71
2022/06/12 08:56:36;;;;;;;8.13;4.75;;;;;;;;;;5111285;27;20393;-70
2022/06/12 09:02:26;;;;;;;7.93;4.35;;;;;;;;;;5111172;27;20397;-71
2022/06/12 09:04:53;;;;;;;7.97;4.45;;;;;;;;;;5111570;28;20024;-70
2022/06/12 09:07:22;;;;;;;8.65;5.28;;;;;;;;;;5111427;28;20468;-71
2022/06/12 09:09:53;;;;;;;7.35;4.35;;;;;;;;;;5110772;28;20020;-71
2022/06/12 09:15:22;;;;;;;7.18;4.63;;;;;;;;;;5111218;27;20397;-70
2022/06/12 09:19:39;;;;;;;8.20;5.38;;;;;;;;;;5111326;27;20461;-71
2022/06/12 09:23:19;;;;;;;7.35;4.70;;;;;;;;;;5111292;27;20385;-71
2022/06/12 09:25:51;;;;;;;12.18;5.82;;;;;;;;;;5111319;28;20027;-71
2022/06/12 09:28:17;;;;;;;;;;;;;;;;;;5111537;28;20020;-71
2022/06/12 09:30:48;;;;;;;7.00;4.43;;;;;;;;;;5110892;28;19991;-71
2022/06/12 09:33:22;;;;;;;10.00;5.85;;;;;;;;;;5111630;28;20066;-71
2022/06/12 09:35:55;;;;;;;8.77;5.43;;;;;;;;;;5111606;28;20024;-71
2022/06/12 09:38:24;;;;;;;10.75;5.70;;;;;;;;;;5110700;28;20126;-71
2022/06/12 09:40:50;;;;;;;8.93;5.47;;;;;;;;;;5110911;28;20093;-71
2022/06/12 09:43:19;;;;;;;9.60;5.10;;;;;;;;;;5110570;28;20540;-71
2022/06/12 09:48:46;;;;;;;8.27;5.50;;;;;;;;;;5111694;27;20380;-71
2022/06/12 09:51:32;;;;;;;8.50;5.50;;;;;;;;;;5110754;28;20028;-71
2022/06/12 09:54:01;;;;;;;9.82;5.38;;;;;;;;;;5111301;28;20464;-71
2022/06/12 09:56:31;;;;;;;8.65;5.78;;;;;;;;;;5111100;28;20030;-71
2022/06/12 09:59:42;;;;;;;10.93;6.13;;;;;;;;;;5111093;27;20388;-71
2022/06/12 10:02:15;;;;;;;8.98;5.22;;;;;;;;;;5111594;28;20080;-71
2022/06/12 10:04:41;;;;;;;;;;;;;;;;;;5111151;28;20396;-72
2022/06/12 10:07:13;;;;;;;9.50;5.63;;;;;;;;;;5111090;28;20363;-71
2022/06/12 10:09:43;;;;;;;8.50;5.18;;;;;;;;;;5111055;28;20062;-70
2022/06/12 10:13:42;;;;;;;9.02;6.30;;;;;;;;;;5111326;27;20796;-71
2022/06/12 10:16:21;;;;;;;9.02;5.65;;;;;;;;;;5111243;28;20027;-71
2022/06/12 10:18:53;;;;;;;12.20;5.53;;;;;;;;;;5110844;28;20019;-71
2022/06/12 10:21:21;;;;;;;9.50;5.32;;;;;;;;;;5111405;28;20114;-72
2022/06/12 10:23:48;;;;;;;11.15;4.93;;;;;;;;;;5111305;28;20073;-71
2022/06/12 10:27:41;;;;;;;7.13;5.13;;;;;;;;;;5111288;27;20980;-72
2022/06/12 10:30:08;;;;;;;7.35;4.88;;;;;;;;;;5111244;28;20519;-73
2022/06/12 10:34:30;;;;;;;8.52;4.40;;;;;;;;;;5111016;27;20401;-71
2022/06/12 10:37:10;;;;;;;8.00;5.05;;;;;;;;;;5111267;28;20380;-71
2022/06/12 10:40:14;;;;;;;8.25;5.43;;;;;;;;;;5111124;27;20423;-71
2022/06/12 10:42:43;;;;;;;9.48;4.82;;;;;;;;;;5111271;28;20038;-71
2022/06/12 10:45:20;;;;;;;7.47;4.30;;;;;;;;;;5111048;28;20103;-71
2022/06/12 10:47:46;;;;;;;7.35;4.18;;;;;;;;;;5110788;28;20024;-71
2022/06/12 10:52:22;;;;;;;7.70;5.00;;;;;;;;;;5173499;27;20190;-71
2022/06/12 10:54:51;;;;;;;7.32;4.72;;;;;;;;;;5152022;27;20034;-71
2022/06/12 11:00:09;;;;;;;7.95;4.75;;;;;;;;;;5112041;27;20393;-71
2022/06/12 11:02:42;;;;;;;6.90;4.50;;;;;;;;;;5110945;28;20035;-71
2022/06/12 11:05:27;;;;;;;9.43;4.95;;;;;;;;;;5127009;28;20047;-71
2022/06/12 11:10:00;;;;;;;10.05;6.15;;;;;;;;;;5110922;27;20401;-72
2022/06/12 11:12:52;;;;;;;8.20;4.57;;;;;;;;;;5111193;28;20046;-71
2022/06/12 11:15:18;;;;;;;7.87;4.77;;;;;;;;;;5087296;28;20044;-72
2022/06/12 11:17:57;;;;;;;7.88;4.55;;;;;;;;;;5111368;28;20046;-72
2022/06/12 11:20:27;;;;;;;6.72;4.45;;;;;;;;;;5111713;28;20023;-72
2022/06/12 11:22:53;;;;;;;7.05;4.50;;;;;;;;;;5110752;28;20024;-72
2022/06/12 11:25:28;;;;;;;9.57;4.57;;;;;;;;;;5110918;28;20487;-72
2022/06/12 11:28:00;;;;;;;8.57;5.13;;;;;;;;;;5111155;28;20028;-72
2022/06/12 11:30:56;;;;;;;8.38;5.18;;;;;;;;;;5110723;28;20024;-72
2022/06/12 11:33:40;;;;;;;6.78;4.65;;;;;;;;;;5097597;28;20038;-72
2022/06/12 11:39:26;;;;;;;8.45;4.68;;;;;;;;;;5111982;27;20397;-71
2022/06/12 11:41:56;;;;;;;8.25;4.63;;;;;;;;;;5111489;28;20051;-71
2022/06/12 11:44:56;;;;;;;8.55;5.05;;;;;;;;;;5111068;27;20438;-71
2022/06/12 11:47:25;;;;;;;7.28;4.60;;;;;;;;;;5111227;28;20039;-71
2022/06/12 11:49:56;;;;;;;7.15;4.40;;;;;;;;;;5111113;28;20054;-71
2022/06/12 11:52:37;;;;;;;8.43;4.95;;;;;;;;;;5111125;28;20551;-71
2022/06/12 11:55:18;;;;;;;8.80;4.88;;;;;;;;;;5111264;28;20031;-71
2022/06/12 11:57:45;;;;;;;12.77;4.80;;;;;;;;;;5110597;28;20024;-71
2022/06/12 12:00:12;;;;;;;10.23;5.53;;;;;;;;;;5110929;28;20502;-71
2022/06/12 12:02:41;;;;;;;6.95;4.65;;;;;;;;;;5110843;28;20107;-71
2022/06/12 12:05:26;;;;;;;11.38;5.00;;;;;;;;;;5110550;28;20532;-71
2022/06/12 12:08:03;;;;;;;7.20;4.70;;;;;;;;;;5111013;28;20020;-71
2022/06/12 12:10:38;;;;;;;6.47;3.97;;;;;;;;;;5110834;28;20032;-71
2022/06/12 12:13:10;;;;;;;7.25;4.90;;;;;;;;;;5110471;28;20012;-71
2022/06/12 12:15:56;;;;;;;7.90;3.97;;;;;;;;;;5111038;28;20077;-71
2022/06/12 12:20:24;;;;;;;7.80;4.50;;;;;;;;;;5172982;27;20132;-72
2022/06/12 12:22:53;;;;;;;7.22;3.72;;;;;;;;;;5152372;27;20031;-71
2022/06/12 12:25:32;;;;;;;8.73;4.68;;;;;;;;;;5151935;27;20106;-71
2022/06/12 12:28:04;;;;;;;7.30;3.70;;;;;;;;;;5152273;27;20019;-72
2022/06/12 12:30:38;;;;;;;7.20;4.05;;;;;;;;;;5152459;27;20083;-72
2022/06/12 12:33:05;;;;;;;7.43;3.83;;;;;;;;;;5152017;27;20015;-71
2022/06/12 12:41:20;;;;;;;8.10;4.43;;;;;;;;;;5151936;27;20079;-71
2022/06/12 12:44:01;;;;;;;7.60;4.43;;;;;;;;;;5152091;27;20026;-71
2022/06/12 12:46:41;;;;;;;7.65;4.60;;;;;;;;;;5151656;27;20019;-73
2022/06/12 12:49:07;;;;;;;8.30;4.75;;;;;;;;;;5152148;27;20015;-71
2022/06/12 12:51:37;;;;;;;16.25;5.07;;;;;;;;;;5151747;27;20096;-73
2022/06/12 12:54:07;;;;;;;6.82;4.32;;;;;;;;;;5151522;27;20034;-71
2022/06/12 12:56:34;;;;;;;7.13;4.15;;;;;;;;;;5151755;27;20526;-71
2022/06/12 12:59:06;;;;;;;8.50;4.28;;;;;;;;;;5151892;27;20387;-71
2022/06/12 13:01:38;;;;;;;7.05;4.50;;;;;;;;;;5151477;27;20015;-71
2022/06/12 13:04:19;;;;;;;8.48;5.20;;;;;;;;;;5151920;27;20030;-71
2022/06/12 13:06:48;;;;;;;10.38;4.95;;;;;;;;;;5152113;27;20098;-71
2022/06/12 13:09:33;;;;;;;8.70;5.18;;;;;;;;;;5151151;27;20022;-71
2022/06/12 13:12:14;;;;;;;9.52;5.65;;;;;;;;;;5151414;27;20424;-71
2022/06/12 13:15:00;;;;;;;12.20;5.93;;;;;;;;;;5151061;27;20033;-72
2022/06/12 13:17:32;;;;;;;6.78;4.45;;;;;;;;;;5151381;27;20043;-71
2022/06/12 13:20:02;;;;;;;10.88;5.80;;;;;;;;;;5151091;27;20074;-71
2022/06/12 13:22:47;;;;;;;7.45;5.30;;;;;;;;;;5150878;27;20023;-72
2022/06/12 13:25:20;;;;;;;8.82;5.60;;;;;;;;;;5151549;27;20023;-72
2022/06/12 13:28:04;;;;;;;9.70;5.63;;;;;;;;;;5151421;27;20030;-72
2022/06/12 13:30:39;;;;;;;7.93;5.32;;;;;;;;;;5143443;27;20022;-72
2022/06/12 13:33:17;;;;;;;9.23;4.97;;;;;;;;;;5137635;27;20104;-73
2022/06/12 13:35:50;;;;;;;6.97;4.82;;;;;;;;;;5137083;27;20023;-73
2022/06/12 13:38:22;;;;;;;7.43;5.25;;;;;;;;;;5137060;27;20428;-73
2022/06/12 13:40:54;;;;;;;6.80;4.80;;;;;;;;;;5136988;27;20068;-73
2022/06/12 13:43:22;;;;;;;7.25;5.25;;;;;;;;;;5137004;27;20019;-73
2022/06/12 13:46:36;;;;;;;8.10;5.45;;;;;;;;;;5111306;27;20785;-71
2022/06/12 13:49:30;;;;;;;7.13;5.28;;;;;;;;;;5071530;28;20395;-71
2022/06/12 13:51:59;;;;;;;6.65;4.80;;;;;;;;;;5070860;28;20108;-73
2022/06/12 13:54:27;;;;;;;7.13;4.55;;;;;;;;;;5070575;28;20451;-72
2022/06/12 13:58:01;;;;;;;7.43;5.10;;;;;;;;;;5111130;27;20397;-72
2022/06/12 14:00:27;;;;;;;9.20;5.57;;;;;;;;;;5111641;28;20028;-71
2022/06/12 14:02:54;;;;;;;7.25;4.45;;;;;;;;;;5111151;28;20055;-72
2022/06/12 14:06:39;;;;;;;7.70;5.28;;;;;;;;;;5111895;27;20422;-72
2022/06/12 14:09:07;;;;;;;7.07;4.78;;;;;;;;;;5111170;28;20016;-73
2022/06/12 14:11:35;;;;;;;7.25;5.35;;;;;;;;;;5110665;28;20024;-72
2022/06/12 14:16:07;;;;;;;9.75;5.82;;;;;;;;;;5111749;27;20389;-71
2022/06/12 14:18:33;;;;;;;9.00;5.53;;;;;;;;;;5111098;28;20024;-71
2022/06/12 14:21:01;;;;;;;7.30;5.25;;;;;;;;;;5111721;28;20410;-71
2022/06/12 14:26:41;;;;;;;6.63;5.13;;;;;;;;;;5110916;27;20453;-71
2022/06/12 14:29:26;;;;;;;9.75;5.25;;;;;;;;;;5111232;28;20055;-72
2022/06/12 14:31:52;;;;;;;9.25;5.20;;;;;;;;;;5110801;28;20027;-71
2022/06/12 14:35:11;;;;;;;7.35;4.63;;;;;;;;;;5111367;27;20396;-73
2022/06/12 14:37:41;;;;;;;7.93;4.95;;;;;;;;;;5111331;28;20077;-72
2022/06/12 14:40:45;;;;;;;8.48;5.10;;;;;;;;;;5110897;27;20405;-71
2022/06/12 14:45:51;;;;;;;10.05;5.68;;;;;;;;;;5111474;27;20388;-71
2022/06/12 14:48:22;;;;;;;7.60;4.60;;;;;;;;;;5111383;28;20478;-72
2022/06/12 14:50:48;;;;;;;13.10;5.85;;;;;;;;;;5111160;28;20039;-71
2022/06/12 14:55:45;;;;;;;9.82;5.55;;;;;;;;;;5111441;27;20389;-71
2022/06/12 15:00:21;;;;;;;8.05;5.60;;;;;;;;;;5111538;27;20392;-71
2022/06/12 15:02:47;;;;;;;8.15;5.85;;;;;;;;;;5111118;28;20107;-71
2022/06/12 15:05:21;;;;;;;10.25;5.97;;;;;;;;;;5111091;28;20024;-71
2022/06/12 15:09:04;;;;;;;8.35;6.28;;;;;;;;;;5111415;27;20431;-71
2022/06/12 15:11:31;;;;;;;10.13;5.70;;;;;;;;;;5111183;28;20391;-71
2022/06/12 15:13:57;;;;;;;8.25;5.78;;;;;;;;;;5126501;28;20024;-72
2022/06/12 15:16:25;;;;;;;8.65;5.70;;;;;;;;;;5111260;28;20383;-71
2022/06/12 15:21:02;;;;;;;8.20;5.68;;;;;;;;;;5111142;27;20769;-72
2022/06/12 15:23:29;;;;;;;9.32;6.40;;;;;;;;;;5111198;28;20028;-72
2022/06/12 15:31:25;;;;;;;9.68;6.68;;;;;;;;;;5111304;28;20066;-72
2022/06/12 15:33:51;;;;;;;9.57;6.50;;;;;;;;;;5110985;28;20073;-73
2022/06/12 15:37:17;;;;;;;9.30;6.45;;;;;;;;;;5111388;27;20392;-72
2022/06/12 15:39:43;;;;;;;9.00;7.15;;;;;;;;;;5109888;28;20027;-71
2022/06/12 15:42:10;;;;;;;8.20;5.80;;;;;;;;;;5111028;28;20019;-71
2022/06/12 15:44:36;;;;;;;8.95;6.03;;;;;;;;;;5111021;28;20027;-72
2022/06/12 15:47:02;;;;;;;8.80;5.40;;;;;;;;;;5111036;28;20166;-72
2022/06/12 15:49:29;;;;;;;10.50;6.47;;;;;;;;;;5110761;28;20051;-71
2022/06/12 15:54:04;;;;;;;8.65;6.32;;;;;;;;;;5111329;27;20834;-71
2022/06/12 15:56:30;;;;;;;8.57;5.75;;;;;;;;;;5110847;28;20471;-71
2022/06/12 15:58:56;;;;;;;8.95;5.78;;;;;;;;;;5111238;28;20046;-71
2022/06/12 16:01:27;;;;;;;9.07;6.13;;;;;;;;;;5111138;28;20023;-71
2022/06/12 16:03:54;;;;;;;9.25;6.00;;;;;;;;;;5110618;28;20035;-71
2022/06/12 16:06:21;;;;;;;8.25;5.40;;;;;;;;;;5111365;28;20034;-71
2022/06/12 16:08:47;;;;;;;9.35;5.80;;;;;;;;;;5111018;28;20111;-71
2022/06/12 16:11:13;;;;;;;9.10;6.13;;;;;;;;;;5110523;28;20387;-71
2022/06/12 16:17:05;;;;;;;8.10;5.90;;;;;;;;;;5091055;28;20991;-71
2022/06/12 16:19:32;;;;;;;8.00;6.18;;;;;;;;;;5090457;28;20123;-71
2022/06/12 16:22:14;;;;;;;8.15;5.40;;;;;;;;;;5111890;27;20438;-71
2022/06/12 16:24:40;;;;;;;7.78;5.75;;;;;;;;;;5110812;28;20031;-71
2022/06/12 16:27:06;;;;;;;9.20;6.35;;;;;;;;;;5111207;28;20024;-71
2022/06/12 16:29:33;;;;;;;9.90;5.72;;;;;;;;;;5111116;28;20448;-71
2022/06/12 16:32:23;;;;;;;7.65;5.20;;;;;;;;;;5111057;27;20915;-71
2022/06/12 16:34:54;;;;;;;7.22;5.30;;;;;;;;;;5111228;28;20028;-71
2022/06/12 16:37:20;;;;;;;9.43;5.70;;;;;;;;;;5111205;28;20027;-71
2022/06/12 16:39:46;;;;;;;9.05;6.00;;;;;;;;;;5110810;28;20024;-71
2022/06/12 16:42:13;;;;;;;9.75;6.30;;;;;;;;;;5111158;28;20024;-71
2022/06/12 16:44:39;;;;;;;8.32;5.47;;;;;;;;;;5111073;28;20020;-71
2022/06/12 16:47:06;;;;;;;8.70;6.30;;;;;;;;;;5110685;28;20035;-70
2022/06/12 16:49:32;;;;;;;7.90;5.78;;;;;;;;;;5110924;28;20035;-70
2022/06/12 16:52:04;;;;;;;7.55;5.50;;;;;;;;;;5111317;28;20380;-71
2022/06/12 16:54:38;;;;;;;8.20;5.70;;;;;;;;;;5110475;28;20498;-70
2022/06/12 16:57:05;;;;;;;9.48;5.80;;;;;;;;;;5110718;28;20035;-70
2022/06/12 17:01:03;;;;;;;8.52;6.22;;;;;;;;;;5110915;27;20113;-70
2022/06/12 17:04:42;;;;;;;9.27;5.88;;;;;;;;;;5111651;27;20393;-71
2022/06/12 17:07:10;;;;;;;7.63;5.60;;;;;;;;;;5126553;28;20533;-71
2022/06/12 17:09:37;;;;;;;8.68;5.35;;;;;;;;;;5111143;28;20467;-70
2022/06/12 17:12:14;;;;;;;9.25;5.55;;;;;;;;;;5111703;27;20469;-70
2022/06/12 17:14:41;;;;;;;9.70;5.97;;;;;;;;;;5110796;28;20016;-71
2022/06/12 17:17:08;;;;;;;8.63;5.72;;;;;;;;;;5111135;28;20035;-71
2022/06/12 17:21:31;;;;;;;8.55;5.35;;;;;;;;;;5111110;27;20785;-71
2022/06/12 17:23:57;;;;;;;7.75;5.20;;;;;;;;;;5111150;28;20468;-71
2022/06/12 17:26:24;;;;;;;8.05;5.43;;;;;;;;;;5111102;28;20069;-71
2022/06/12 17:30:58;;;;;;;8.77;5.38;;;;;;;;;;5111247;27;20384;-72
2022/06/12 17:33:24;;;;;;;7.80;5.85;;;;;;;;;;5111227;28;20020;-72
2022/06/12 17:38:06;;;;;;;8.23;6.03;;;;;;;;;;5071077;28;20391;-71
2022/06/12 17:40:50;;;;;;;8.02;5.60;;;;;;;;;;5111417;27;20780;-72
2022/06/12 17:43:16;;;;;;;9.27;5.60;;;;;;;;;;5110944;28;20031;-72
2022/06/12 17:45:42;;;;;;;8.35;5.85;;;;;;;;;;5111229;28;20016;-72
2022/06/12 17:48:11;;;;;;;8.85;6.25;;;;;;;;;;5111171;28;20099;-71
2022/06/12 17:50:38;;;;;;;8.68;6.10;;;;;;;;;;5110643;28;20383;-71
2022/06/12 17:53:05;;;;;;;10.13;6.90;;;;;;;;;;5110974;28;20023;-71
2022/06/12 17:55:49;;;;;;;8.70;6.32;;;;;;;;;;5111266;27;20414;-71
2022/06/12 17:58:15;;;;;;;9.23;6.57;;;;;;;;;;5111167;28;20038;-71
2022/06/12 18:05:31;;;;;;;8.88;7.00;;;;;;;;;;5111476;27;20392;-72
2022/06/12 18:07:57;;;;;;;8.68;5.75;;;;;;;;;;5111299;28;20032;-73
2022/06/12 18:10:48;;;;;;;9.68;6.20;;;;;;;;;;5111166;27;20381;-72
2022/06/12 18:20:01;;;;;;;8.98;6.57;;;;;;;;;;5111408;28;20121;-71
2022/06/12 18:22:27;;;;;;;8.05;6.10;;;;;;;;;;5111103;28;20031;-72
2022/06/12 18:25:19;;;;;;;8.68;6.35;;;;;;;;;;5111125;27;20410;-73
2022/06/12 18:27:45;;;;;;;8.98;6.30;;;;;;;;;;5111513;28;20027;-73
2022/06/12 18:30:48;;;;;;;8.32;6.30;;;;;;;;;;5110977;27;20969;-72
2022/06/12 18:33:16;;;;;;;8.50;6.43;;;;;;;;;;5111184;28;20020;-71
2022/06/12 18:35:48;;;;;;;11.93;6.97;;;;;;;;;;5111221;28;20020;-71
2022/06/12 18:38:16;;;;;;;9.77;6.97;;;;;;;;;;5110886;28;20492;-71
2022/06/12 18:40:42;;;;;;;8.25;6.07;;;;;;;;;;5111052;28;20020;-72
2022/06/12 18:43:08;;;;;;;8.07;6.18;;;;;;;;;;5111001;28;20024;-72